KMTN/MTN METAR and TAF weather

Enter ICAO airport designator
Station Type Date Time Source
KMTN METAR 2020/01/17 21:55 UTC NOAA

KMTN 172155Z 32008KT 10SM SKC 00/M13 A3072


Station Type Date Time Source
KMTN Decoded METAR 2020/01/17 21:55 UTC NOAA

Baltimore / Martin, MD, United States (KMTN) 39-20N 076-25W
Jan 17, 2020 - 04:55 PM EST / 2020.01.17 2155 UTC
Wind: from the NW (320 degrees) at 9 MPH (8 KT):0
Visibility: 10 mile(s):0
Sky conditions: clear
Temperature: 32 F (0 C)
Windchill: 24 F (-4 C):1
Dew Point: 8 F (-13 C)
Relative Humidity: 36%
Pressure (altimeter): 30.72 in. Hg (1040 hPa)
ob: KMTN 172155Z 32008KT 10SM SKC 00/M13 A3072
cycle: 22

Station Type Date Time Source
KMTN TAF 2020/01/17 18:36 UTC NOAA

TAF KMTN 171734Z 1718/1818 33012G19KT P6SM FEW250
FM171900 33011KT P6SM FEW250
FM180100 35005KT P6SM FEW250
FM180500 VRB03KT P6SM BKN200
FM181300 15004KT 2SM -SN OVC040
FM181500 16007KT 2SM -SN OVC025

Example: see airport list